Pagina principale
METAR-TAF:

METAR-TAF

Aeroporti :

Aeroporto di Cervia-Pisignano

Cervia, Italia

latitudine: 44-13N, longitudine: 012-18E, altezza: 6 m

Osservazione

Il bollettino è stato emesso 31 minuti fa, alle 23:55 UTC
Vento 3 kt da nord/nord-est
Temperature 13°C
Umidità 67%
Pressione 1005 hPa
Visibilità 10 km o più
nessuna nube inferiore a 1500 m e nessun cumulonembo

METAR: LIPC 152355Z 02003KT CAVOK 13/07 Q1005 RMK SKC VIS MIN 9999 WIND THR11 04002KT WIND THR29 03002KT BLU

Ora: 02:26 (00:26 UTC)

Previsione

Il bollettino è stato emesso 1 ora e 26 minuti fa, alle 23:00 UTC
Previsione valida dal 16 alle 00 UTC al 16 alle 09 UTC
Vento 5 kt da sud/sud-ovest
Visibilità 10 km o più
nessuna nube inferiore a 1500 m e nessun cumulonembo
Evoluzione graduale
dal 16 alle 06 UTC al 16 alle 08 UTC
Vento 15 kt da sud-ovest con raffiche fino a 25 kt

TAF: LIPC 152300Z 1600/1609 20005KT CAVOK BECMG 1606/1608 22015G25KT

Osservazioni e previsioni meteorologiche di più di 4000 aeroporti (messaggi METAR e TAF).

Le stazioni disponibili sono rappresentate dai dischi gialli e rossi sulla carta.

Puntare il mouse per vedere il nome della stazione.

Clicca sopra per visualizzare le osservazioni e previsioni meteorologiche.

Per cambiare la mappa : fare clic sui pulsanti verdi con una croce nera per ingrandire, il pulsante verde con un trattino per diminuire, o sulla freccia verde per le mappe adiacenti.


METAR-TAF: